createdAt,value
2018-11-01T00:00:33.538Z,64.00
2018-11-01T00:02:37.597Z,63.80
2018-11-01T00:04:41.654Z,63.90
2018-11-01T00:06:45.693Z,63.90
2018-11-01T00:08:49.801Z,63.90
2018-11-01T00:10:53.884Z,63.90
2018-11-01T00:12:57.968Z,63.70
2018-11-01T00:15:02.030Z,63.80
2018-11-01T00:17:06.681Z,63.80
2018-11-01T00:19:10.770Z,63.80
2018-11-01T00:21:14.830Z,63.70
2018-11-01T00:23:18.935Z,63.80
2018-11-01T00:25:23.018Z,63.70
2018-11-01T00:27:27.494Z,63.70
2018-11-01T00:29:31.602Z,63.60
2018-11-01T00:31:35.729Z,63.40
2018-11-01T00:33:39.846Z,63.20
2018-11-01T00:35:43.947Z,63.40
2018-11-01T00:37:48.643Z,63.50
2018-11-01T00:39:52.733Z,63.60
2018-11-01T00:41:56.826Z,63.30
2018-11-01T00:44:00.943Z,63.20
2018-11-01T00:46:05.160Z,63.00
2018-11-01T00:48:09.551Z,63.10
2018-11-01T00:50:14.778Z,63.40
2018-11-01T00:52:18.886Z,63.50
2018-11-01T00:54:22.976Z,63.40
2018-11-01T00:56:27.059Z,63.60
2018-11-01T00:58:31.169Z,63.70
2018-11-01T01:00:35.277Z,63.70
2018-11-01T01:02:39.669Z,63.60
2018-11-01T01:04:43.793Z,63.60
2018-11-01T01:06:47.871Z,63.70
2018-11-01T01:08:51.966Z,63.80
2018-11-01T01:10:57.062Z,63.90
2018-11-01T01:13:01.150Z,63.90
2018-11-01T01:15:06.172Z,63.90
2018-11-01T01:17:10.263Z,63.60
2018-11-01T01:19:14.366Z,63.90
2018-11-01T01:21:18.482Z,63.90
2018-11-01T01:23:22.606Z,65.00
2018-11-01T01:25:26.665Z,65.00
2018-11-01T01:27:30.734Z,65.00
2018-11-01T01:29:34.814Z,65.00
2018-11-01T01:31:38.892Z,65.00
2018-11-01T01:33:42.978Z,65.00
2018-11-01T01:35:47.254Z,64.90
2018-11-01T01:37:51.356Z,65.00
2018-11-01T01:39:55.442Z,65.00
2018-11-01T01:41:59.502Z,64.90
2018-11-01T01:44:03.622Z,64.90
2018-11-01T01:46:07.885Z,65.10
2018-11-01T01:48:11.965Z,65.00
2018-11-01T01:50:16.598Z,64.80
2018-11-01T01:52:20.610Z,64.80
2018-11-01T01:54:24.682Z,64.70
2018-11-01T01:56:30.105Z,64.60
2018-11-01T01:58:34.205Z,64.80
2018-11-01T02:00:38.310Z,64.60
2018-11-01T02:02:44.329Z,64.50
2018-11-01T02:04:48.578Z,64.50
2018-11-01T02:06:53.762Z,64.40
2018-11-01T02:08:57.841Z,64.40
2018-11-01T02:11:01.895Z,64.50
2018-11-01T02:13:06.608Z,64.60
2018-11-01T02:15:17.138Z,64.60
2018-11-01T02:17:21.200Z,64.60
2018-11-01T02:19:25.263Z,64.70
2018-11-01T02:21:29.296Z,64.50
2018-11-01T02:23:34.093Z,64.50
2018-11-01T02:25:38.151Z,64.50
2018-11-01T02:27:47.678Z,64.60
2018-11-01T02:29:51.782Z,64.80
2018-11-01T02:31:55.966Z,64.80
2018-11-01T02:34:00.059Z,64.90
2018-11-01T02:36:04.258Z,65.80
2018-11-01T02:38:08.320Z,65.10
2018-11-01T02:40:12.912Z,65.30
2018-11-01T02:42:16.952Z,65.40
2018-11-01T02:44:20.990Z,65.30
2018-11-01T02:46:25.064Z,65.30
2018-11-01T02:48:29.142Z,65.40
2018-11-01T02:50:34.295Z,65.20
2018-11-01T02:52:38.706Z,65.10
2018-11-01T02:54:42.776Z,65.00
2018-11-01T02:56:46.846Z,64.90
2018-11-01T02:58:50.923Z,64.90
2018-11-01T03:00:54.977Z,64.90
2018-11-01T03:02:59.049Z,65.00
2018-11-01T03:05:03.119Z,64.90
2018-11-01T03:07:07.194Z,64.80
2018-11-01T03:09:11.227Z,64.80
2018-11-01T03:11:15.454Z,64.80
2018-11-01T03:13:19.498Z,64.80
2018-11-01T03:15:23.558Z,64.60
2018-11-01T03:17:27.583Z,64.40
2018-11-01T03:19:32.439Z,64.20
2018-11-01T03:21:36.616Z,64.20
2018-11-01T03:23:40.639Z,64.00
2018-11-01T03:25:44.675Z,63.90
2018-11-01T03:27:48.706Z,64.00
2018-11-01T03:29:52.758Z,63.80
2018-11-01T03:31:56.801Z,63.70
2018-11-01T03:34:00.833Z,63.70
2018-11-01T03:36:04.906Z,63.70
2018-11-01T03:38:08.968Z,63.90
2018-11-01T03:40:13.181Z,63.90
2018-11-01T03:42:17.219Z,63.90
2018-11-01T03:44:21.276Z,64.70
2018-11-01T03:46:25.312Z,63.90
2018-11-01T03:48:29.367Z,64.00
2018-11-01T03:50:33.419Z,64.00
2018-11-01T03:52:37.642Z,64.10
2018-11-01T03:54:41.731Z,64.30
2018-11-01T03:56:45.799Z,64.40
2018-11-01T03:58:49.859Z,64.50
2018-11-01T04:00:54.851Z,64.60
2018-11-01T04:02:58.904Z,64.60
2018-11-01T04:05:02.943Z,64.70
2018-11-01T04:07:07.219Z,64.60
2018-11-01T04:09:13.033Z,64.60
2018-11-01T04:11:17.111Z,64.80
2018-11-01T04:13:21.215Z,64.80
2018-11-01T04:15:25.195Z,64.80
2018-11-01T04:17:29.220Z,64.80
2018-11-01T04:19:33.281Z,64.90
2018-11-01T04:21:37.317Z,65.00
2018-11-01T04:23:41.355Z,65.10
2018-11-01T04:25:45.438Z,65.00
2018-11-01T04:27:49.535Z,64.90
2018-11-01T04:29:53.541Z,65.00
2018-11-01T04:31:57.662Z,65.00
2018-11-01T04:34:01.740Z,64.80
2018-11-01T04:36:06.216Z,64.70
2018-11-01T04:38:10.239Z,64.60
2018-11-01T04:40:15.158Z,64.60
2018-11-01T04:42:19.188Z,64.80
2018-11-01T04:44:23.262Z,64.70
2018-11-01T04:46:27.279Z,64.60
2018-11-01T04:48:31.318Z,64.70
2018-11-01T04:50:35.396Z,64.70
2018-11-01T04:52:39.654Z,64.60
2018-11-01T04:54:43.668Z,64.60
2018-11-01T04:56:47.939Z,64.60
2018-11-01T04:58:51.971Z,64.70
2018-11-01T05:00:56.041Z,64.80
2018-11-01T05:03:00.067Z,64.80
2018-11-01T05:05:04.181Z,64.80
2018-11-01T05:07:08.166Z,64.70
2018-11-01T05:09:12.353Z,64.70
2018-11-01T05:11:16.862Z,64.70
2018-11-01T05:13:21.040Z,64.70
2018-11-01T05:15:25.150Z,64.80
2018-11-01T05:17:29.125Z,64.80
2018-11-01T05:19:33.177Z,65.00
2018-11-01T05:21:37.230Z,65.30
2018-11-01T05:23:41.497Z,65.10
2018-11-01T05:25:45.638Z,64.90
2018-11-01T05:27:49.578Z,64.80
2018-11-01T05:29:53.603Z,64.70
2018-11-01T05:31:57.656Z,64.40
2018-11-01T05:34:01.696Z,64.40
2018-11-01T05:36:06.286Z,64.50
2018-11-01T05:38:10.386Z,64.80
2018-11-01T05:40:15.502Z,65.20
2018-11-01T05:42:19.574Z,65.20
2018-11-01T05:44:23.613Z,65.20
2018-11-01T05:46:27.678Z,65.40
2018-11-01T05:48:31.777Z,65.50
2018-11-01T05:50:35.954Z,65.50
2018-11-01T05:52:45.715Z,65.40
2018-11-01T05:54:50.030Z,66.10
2018-11-01T05:56:54.062Z,65.30
2018-11-01T05:58:58.145Z,65.20
2018-11-01T06:01:04.362Z,65.10
2018-11-01T06:03:08.396Z,65.10
2018-11-01T06:05:12.474Z,65.00
2018-11-01T06:07:18.174Z,64.90
2018-11-01T06:09:28.102Z,64.70
2018-11-01T06:11:32.162Z,64.70
2018-11-01T06:13:36.257Z,64.60
2018-11-01T06:15:40.329Z,64.70
2018-11-01T06:17:44.415Z,64.70
2018-11-01T06:19:48.514Z,64.90
2018-11-01T06:21:52.786Z,64.90
2018-11-01T06:23:57.937Z,64.90
2018-11-01T06:26:01.993Z,65.10
2018-11-01T06:28:06.185Z,65.20
2018-11-01T06:30:13.536Z,65.10
2018-11-01T06:32:18.117Z,65.10
2018-11-01T06:34:26.695Z,65.20
2018-11-01T06:36:30.771Z,65.10
2018-11-01T06:38:34.798Z,65.30
2018-11-01T06:40:38.813Z,65.50
2018-11-01T06:42:42.886Z,65.60
2018-11-01T06:44:47.037Z,65.80
2018-11-01T06:46:51.069Z,65.70
2018-11-01T06:48:55.145Z,65.80
2018-11-01T06:50:59.203Z,65.80
2018-11-01T06:53:03.257Z,65.80
2018-11-01T06:55:09.255Z,65.70
2018-11-01T06:57:13.500Z,65.80
2018-11-01T06:59:19.417Z,65.80
2018-11-01T07:01:23.523Z,65.60
2018-11-01T07:03:27.913Z,65.70
2018-11-01T07:05:31.985Z,65.60
2018-11-01T07:07:36.473Z,65.90
2018-11-01T07:09:40.549Z,66.10
2018-11-01T07:11:44.850Z,66.30
2018-11-01T07:13:48.905Z,66.40
2018-11-01T07:15:53.005Z,66.60
2018-11-01T07:17:57.093Z,66.80
2018-11-01T07:20:01.143Z,67.30
2018-11-01T07:22:05.348Z,67.50
2018-11-01T07:24:09.397Z,67.60
2018-11-01T07:26:13.601Z,67.80
2018-11-01T07:28:17.585Z,67.90
2018-11-01T07:30:21.696Z,68.20
2018-11-01T07:32:25.810Z,68.40
2018-11-01T07:34:29.966Z,69.30
2018-11-01T07:36:34.094Z,68.50
2018-11-01T07:38:38.274Z,68.50
2018-11-01T07:40:42.450Z,68.60
2018-11-01T07:42:46.511Z,68.70
2018-11-01T07:44:50.552Z,68.70
2018-11-01T07:46:54.619Z,68.80
2018-11-01T07:48:58.682Z,68.90
2018-11-01T07:51:02.743Z,69.10
2018-11-01T07:53:06.820Z,69.20
2018-11-01T07:55:12.782Z,69.20
2018-11-01T07:57:16.840Z,69.40
2018-11-01T07:59:20.905Z,69.50
2018-11-01T08:01:24.958Z,69.60
2018-11-01T08:03:28.995Z,69.80
2018-11-01T08:05:33.040Z,70.00
2018-11-01T08:07:37.113Z,70.20
2018-11-01T08:09:41.186Z,70.30
2018-11-01T08:11:45.315Z,70.50
2018-11-01T08:13:49.367Z,70.50
2018-11-01T08:15:53.441Z,71.70
2018-11-01T08:17:57.489Z,71.00
2018-11-01T08:20:02.866Z,71.10
2018-11-01T08:22:07.607Z,71.10
2018-11-01T08:24:11.658Z,71.30
2018-11-01T08:26:15.743Z,71.40
2018-11-01T08:28:19.825Z,71.50
2018-11-01T08:30:23.915Z,71.70
2018-11-01T08:32:28.051Z,71.80
2018-11-01T08:34:32.129Z,71.70
2018-11-01T08:36:36.218Z,71.80
2018-11-01T08:38:40.401Z,71.90
2018-11-01T08:40:46.000Z,72.00
2018-11-01T08:42:50.086Z,72.10
2018-11-01T08:44:54.130Z,72.30
2018-11-01T08:46:58.250Z,72.30
2018-11-01T08:49:02.967Z,72.50
2018-11-01T08:51:07.173Z,72.60
2018-11-01T08:53:11.238Z,72.60
2018-11-01T08:55:15.499Z,72.30
2018-11-01T08:57:20.518Z,72.50
2018-11-01T08:59:24.597Z,72.30
2018-11-01T09:01:28.713Z,72.30
2018-11-01T09:03:32.876Z,72.10
2018-11-01T09:05:37.155Z,72.10
2018-11-01T09:07:41.579Z,72.20
2018-11-01T09:09:45.511Z,72.50
2018-11-01T09:11:49.566Z,72.60
2018-11-01T09:13:53.651Z,72.70
2018-11-01T09:15:57.809Z,72.80
2018-11-01T09:18:01.888Z,72.80
2018-11-01T09:20:07.211Z,72.70
2018-11-01T09:22:11.272Z,72.60
2018-11-01T09:24:15.710Z,72.70
2018-11-01T09:26:19.794Z,72.80
2018-11-01T09:28:24.044Z,73.00
2018-11-01T09:30:28.176Z,73.10
2018-11-01T09:32:32.200Z,73.10
2018-11-01T09:34:36.282Z,72.10
2018-11-01T09:36:40.387Z,71.90
2018-11-01T09:38:44.492Z,71.90
2018-11-01T09:40:48.521Z,71.80
2018-11-01T09:42:52.573Z,72.00
2018-11-01T09:44:56.730Z,72.00
2018-11-01T09:47:01.227Z,72.10
2018-11-01T09:49:05.219Z,72.70
2018-11-01T09:51:09.300Z,71.80
2018-11-01T09:53:13.505Z,71.80
2018-11-01T09:55:17.614Z,71.80
2018-11-01T09:57:21.727Z,72.00
2018-11-01T09:59:25.810Z,72.20
2018-11-01T10:01:29.882Z,72.20
2018-11-01T10:03:34.038Z,72.10
2018-11-01T10:05:38.109Z,72.00
2018-11-01T10:07:42.186Z,72.10
2018-11-01T10:09:46.326Z,72.30
2018-11-01T10:11:50.459Z,72.40
2018-11-01T10:13:54.537Z,72.40
2018-11-01T10:15:58.762Z,72.50
2018-11-01T10:18:03.168Z,72.20
2018-11-01T10:20:09.801Z,72.10
2018-11-01T10:22:13.938Z,72.10
2018-11-01T10:24:18.041Z,72.10
2018-11-01T10:26:22.162Z,72.40
2018-11-01T10:28:26.240Z,72.40
2018-11-01T10:30:30.330Z,72.40
2018-11-01T10:32:34.407Z,72.50
2018-11-01T10:34:38.578Z,72.70
2018-11-01T10:36:42.626Z,72.80
2018-11-01T10:38:46.785Z,73.00
2018-11-01T10:40:50.919Z,73.00
2018-11-01T10:42:56.851Z,73.20
2018-11-01T10:45:00.930Z,73.20
2018-11-01T10:47:05.650Z,73.30
2018-11-01T10:49:10.004Z,73.40
2018-11-01T10:51:14.166Z,73.50
2018-11-01T10:53:18.232Z,73.60
2018-11-01T10:55:22.346Z,73.60
2018-11-01T10:57:26.426Z,73.80
2018-11-01T10:59:31.285Z,73.70
2018-11-01T11:01:38.673Z,73.70
2018-11-01T11:03:43.134Z,73.80
2018-11-01T11:05:47.275Z,73.80
2018-11-01T11:07:51.433Z,73.80
2018-11-01T11:09:55.904Z,73.80
2018-11-01T11:12:00.149Z,73.90
2018-11-01T11:14:04.250Z,73.70
2018-11-01T11:16:08.326Z,73.70
2018-11-01T11:18:12.373Z,73.50
2018-11-01T11:20:16.577Z,73.30
2018-11-01T11:22:20.530Z,72.60
2018-11-01T11:24:24.641Z,72.40
2018-11-01T11:26:28.783Z,72.30
2018-11-01T11:28:32.870Z,72.20
2018-11-01T11:30:36.960Z,71.90
2018-11-01T11:32:41.169Z,71.80
2018-11-01T11:34:45.249Z,72.10
2018-11-01T11:36:49.339Z,72.20
2018-11-01T11:38:53.407Z,72.30
2018-11-01T11:40:57.473Z,72.50
2018-11-01T11:43:01.582Z,72.80
2018-11-01T11:45:07.902Z,72.80
2018-11-01T11:47:11.978Z,72.80
2018-11-01T11:49:16.100Z,72.70
2018-11-01T11:51:20.308Z,72.90
2018-11-01T11:53:24.947Z,73.00
2018-11-01T11:55:29.025Z,73.00
2018-11-01T11:57:33.137Z,73.00
2018-11-01T11:59:37.218Z,72.60
2018-11-01T12:01:41.257Z,72.30
2018-11-01T12:03:45.475Z,72.10
2018-11-01T12:05:49.670Z,72.20
2018-11-01T12:07:53.733Z,72.20
2018-11-01T12:09:57.910Z,72.40
2018-11-01T12:12:02.013Z,72.50
2018-11-01T12:14:07.249Z,72.60
2018-11-01T12:16:11.600Z,72.70
2018-11-01T12:18:15.692Z,72.60
2018-11-01T12:20:19.834Z,72.70
2018-11-01T12:22:24.629Z,72.70
2018-11-01T12:24:28.766Z,72.60
2018-11-01T12:26:32.853Z,73.30
2018-11-01T12:28:37.090Z,72.50
2018-11-01T12:30:41.100Z,72.50
2018-11-01T12:32:45.203Z,72.40
2018-11-01T12:34:49.312Z,72.30
2018-11-01T12:36:53.724Z,72.30
2018-11-01T12:38:57.789Z,72.20
2018-11-01T12:41:01.979Z,72.00
2018-11-01T12:43:06.509Z,71.90
2018-11-01T12:45:12.083Z,71.60
2018-11-01T12:47:16.187Z,71.40
2018-11-01T12:49:20.273Z,71.30
2018-11-01T12:51:24.434Z,71.30
2018-11-01T12:53:29.071Z,71.30
2018-11-01T12:55:34.026Z,71.30
2018-11-01T12:57:38.280Z,71.30
2018-11-01T12:59:42.378Z,71.30
2018-11-01T13:01:46.557Z,71.20
2018-11-01T13:03:50.659Z,71.20
2018-11-01T13:05:54.760Z,71.10
2018-11-01T13:07:58.807Z,70.90
2018-11-01T13:10:02.938Z,70.90
2018-11-01T13:12:07.014Z,70.80
2018-11-01T13:14:11.101Z,70.80
2018-11-01T13:16:15.209Z,70.80
2018-11-01T13:18:19.381Z,70.80
2018-11-01T13:20:23.553Z,70.90
2018-11-01T13:22:27.672Z,70.90
2018-11-01T13:24:31.748Z,70.90
2018-11-01T13:26:35.875Z,70.70
2018-11-01T13:28:39.938Z,70.60
2018-11-01T13:30:44.043Z,70.60
2018-11-01T13:32:49.251Z,70.60
2018-11-01T13:34:53.419Z,70.60
2018-11-01T13:36:57.423Z,70.50
2018-11-01T13:39:01.489Z,70.40
2018-11-01T13:41:06.482Z,70.30
2018-11-01T13:43:10.298Z,70.20
2018-11-01T13:45:14.354Z,70.30
2018-11-01T13:47:18.509Z,70.30
2018-11-01T13:49:22.541Z,70.30
2018-11-01T13:51:26.666Z,70.30
2018-11-01T13:53:31.087Z,70.20
2018-11-01T13:55:35.150Z,70.20
2018-11-01T13:57:39.236Z,70.20
2018-11-01T13:59:43.341Z,70.20
2018-11-01T14:01:47.494Z,70.20
2018-11-01T14:03:51.548Z,70.00
2018-11-01T14:05:55.715Z,69.90
2018-11-01T14:07:59.768Z,70.00
2018-11-01T14:10:04.172Z,70.00
2018-11-01T14:16:45.556Z,69.90
2018-11-01T14:18:49.612Z,69.70
2018-11-01T14:20:53.689Z,69.60
2018-11-01T14:22:57.880Z,69.40
2018-11-01T14:25:02.024Z,69.20
2018-11-01T14:27:06.196Z,69.30
2018-11-01T14:29:10.263Z,69.40
2018-11-01T14:31:14.471Z,69.40
2018-11-01T14:33:18.433Z,69.40
2018-11-01T14:35:22.533Z,69.30
2018-11-01T14:37:26.705Z,69.30
2018-11-01T14:39:30.759Z,69.30
2018-11-01T14:41:34.926Z,69.20
2018-11-01T14:43:39.058Z,69.10
2018-11-01T14:45:43.151Z,69.00
2018-11-01T14:47:47.291Z,69.00
2018-11-01T14:49:51.453Z,68.80
2018-11-01T14:51:55.902Z,68.80
2018-11-01T14:54:00.341Z,68.80
2018-11-01T14:56:05.260Z,68.90
2018-11-01T14:58:09.100Z,68.80
2018-11-01T15:00:12.460Z,68.90
2018-11-01T15:02:16.574Z,68.80
2018-11-01T15:04:20.746Z,68.90
2018-11-01T15:06:24.883Z,68.80
2018-11-01T15:08:28.941Z,68.90
2018-11-01T15:10:33.070Z,68.90
2018-11-01T15:12:37.277Z,68.80
2018-11-01T15:14:42.077Z,68.70
2018-11-01T15:16:46.201Z,68.70
2018-11-01T15:18:50.529Z,68.70
2018-11-01T15:20:54.640Z,68.70
2018-11-01T15:22:58.762Z,68.70
2018-11-01T15:25:02.873Z,68.60
2018-11-01T15:27:07.161Z,68.60
2018-11-01T15:29:11.331Z,68.70
2018-11-01T15:31:15.429Z,68.50
2018-11-01T15:33:19.634Z,68.40
2018-11-01T15:35:23.661Z,68.30
2018-11-01T15:37:27.857Z,69.20
2018-11-01T15:39:31.873Z,68.30
2018-11-01T15:41:36.002Z,68.30
2018-11-01T15:43:40.413Z,68.20
2018-11-01T15:45:44.485Z,68.20
2018-11-01T15:47:48.578Z,68.20
2018-11-01T15:49:52.651Z,68.20
2018-11-01T15:51:56.772Z,68.20
2018-11-01T15:54:00.920Z,68.10
2018-11-01T15:56:04.997Z,68.20
2018-11-01T15:58:09.153Z,68.10
2018-11-01T16:00:14.325Z,68.10
2018-11-01T16:02:18.510Z,68.10
2018-11-01T16:04:22.631Z,68.10
2018-11-01T16:06:26.773Z,68.10
2018-11-01T16:08:30.888Z,68.00
2018-11-01T16:10:35.036Z,68.00
2018-11-01T16:12:39.551Z,68.00
2018-11-01T16:14:43.643Z,68.00
2018-11-01T16:16:48.585Z,68.00
2018-11-01T16:18:52.846Z,67.90
2018-11-01T16:20:57.005Z,67.90
2018-11-01T16:23:01.061Z,68.10
2018-11-01T16:25:05.651Z,68.20
2018-11-01T16:27:09.794Z,68.20
2018-11-01T16:29:14.280Z,68.10
2018-11-01T16:31:18.443Z,68.10
2018-11-01T16:33:22.592Z,68.00
2018-11-01T16:35:26.680Z,67.90
2018-11-01T16:37:31.016Z,67.90
2018-11-01T16:39:35.142Z,67.90
2018-11-01T16:41:39.343Z,67.80
2018-11-01T16:43:43.604Z,67.80
2018-11-01T16:45:47.702Z,67.60
2018-11-01T16:47:51.785Z,67.60
2018-11-01T16:49:56.054Z,68.30
2018-11-01T16:52:00.310Z,67.60
2018-11-01T16:54:04.427Z,67.60
2018-11-01T16:56:08.571Z,67.60
2018-11-01T16:58:12.648Z,67.60
2018-11-01T17:00:16.820Z,67.50
2018-11-01T17:02:20.903Z,67.60
2018-11-01T17:04:25.087Z,67.50
2018-11-01T17:06:29.162Z,67.50
2018-11-01T17:08:33.275Z,67.60
2018-11-01T17:10:37.345Z,67.70
2018-11-01T17:12:41.444Z,67.70
2018-11-01T17:14:45.579Z,67.60
2018-11-01T17:16:49.799Z,67.50
2018-11-01T17:18:53.875Z,67.30
2018-11-01T17:20:58.076Z,67.20
2018-11-01T17:23:02.162Z,67.10
2018-11-01T17:25:06.885Z,67.00
2018-11-01T17:27:10.957Z,67.10
2018-11-01T17:29:15.027Z,67.10
2018-11-01T17:31:19.166Z,67.20
2018-11-01T17:33:23.249Z,67.10
2018-11-01T17:35:27.350Z,67.20
2018-11-01T17:37:31.441Z,67.30
2018-11-01T17:39:35.567Z,67.40
2018-11-01T17:41:39.638Z,67.40
2018-11-01T17:43:43.876Z,67.50
2018-11-01T17:45:47.967Z,67.50
2018-11-01T17:47:52.074Z,67.60
2018-11-01T17:49:56.202Z,67.60
2018-11-01T17:52:00.351Z,67.70
2018-11-01T17:54:04.471Z,67.80
2018-11-01T17:56:08.642Z,67.90
2018-11-01T17:58:19.433Z,68.80
2018-11-01T18:00:27.646Z,68.00
2018-11-01T18:02:31.771Z,68.00
2018-11-01T18:04:35.986Z,68.00
2018-11-01T18:06:40.088Z,68.00
2018-11-01T18:08:44.226Z,68.00
2018-11-01T18:10:48.331Z,68.10
2018-11-01T18:12:52.455Z,68.10
2018-11-01T18:14:56.599Z,68.10
2018-11-01T18:17:00.701Z,68.10
2018-11-01T18:19:04.792Z,68.10
2018-11-01T18:21:08.923Z,68.20
2018-11-01T18:23:13.101Z,68.20
2018-11-01T18:25:17.769Z,68.20
2018-11-01T18:27:21.937Z,68.20
2018-11-01T18:29:26.089Z,68.20
2018-11-01T18:31:30.224Z,68.20
2018-11-01T18:33:34.244Z,68.10
2018-11-01T18:35:38.627Z,68.10
2018-11-01T18:37:43.047Z,68.10
2018-11-01T18:39:47.185Z,68.10
2018-11-01T18:41:51.316Z,68.10
2018-11-01T18:43:55.498Z,68.20
2018-11-01T18:45:59.615Z,68.10
2018-11-01T18:48:03.730Z,68.10
2018-11-01T18:50:09.112Z,68.20
2018-11-01T18:52:13.482Z,68.10
2018-11-01T18:54:17.638Z,68.20
2018-11-01T18:56:21.608Z,68.20
2018-11-01T18:58:25.708Z,68.10
2018-11-01T19:00:29.903Z,68.20
2018-11-01T19:02:34.014Z,68.20
2018-11-01T19:04:38.061Z,68.20
2018-11-01T19:06:42.231Z,68.30
2018-11-01T19:08:46.398Z,68.30
2018-11-01T19:10:50.499Z,68.40
2018-11-01T19:12:54.565Z,68.40
2018-11-01T19:14:58.610Z,68.40
2018-11-01T19:17:02.741Z,69.00
2018-11-01T19:19:07.505Z,68.50
2018-11-01T19:21:11.585Z,68.40
2018-11-01T19:23:15.689Z,68.50
2018-11-01T19:25:19.793Z,68.40
2018-11-01T19:27:24.160Z,68.40
2018-11-01T19:29:28.050Z,68.50
2018-11-01T19:31:32.223Z,68.40
2018-11-01T19:33:36.277Z,68.40
2018-11-01T19:35:40.395Z,68.40
2018-11-01T19:37:44.665Z,68.40
2018-11-01T19:39:48.904Z,68.40
2018-11-01T19:41:52.968Z,68.40
2018-11-01T19:43:57.129Z,68.40
2018-11-01T19:46:01.283Z,68.30
2018-11-01T19:48:05.385Z,68.30
2018-11-01T19:50:11.537Z,68.20
2018-11-01T19:52:16.925Z,68.20
2018-11-01T19:54:21.116Z,68.20
2018-11-01T19:56:25.210Z,68.20
2018-11-01T19:58:29.335Z,68.10
2018-11-01T20:00:33.473Z,67.90
2018-11-01T20:02:37.600Z,67.80
2018-11-01T20:04:41.629Z,67.90
2018-11-01T20:06:45.763Z,67.90
2018-11-01T20:08:49.856Z,68.00
2018-11-01T20:10:53.905Z,68.00
2018-11-01T20:12:57.992Z,68.10
2018-11-01T20:15:02.077Z,68.20
2018-11-01T20:17:06.879Z,68.30
2018-11-01T20:19:11.011Z,68.30
2018-11-01T20:21:15.035Z,68.30
2018-11-01T20:23:19.191Z,68.50
2018-11-01T20:25:23.284Z,68.50
2018-11-01T20:27:27.388Z,68.60
2018-11-01T20:29:37.754Z,68.70
2018-11-01T20:31:41.934Z,68.70
2018-11-01T20:33:46.137Z,68.80
2018-11-01T20:35:50.201Z,69.00
2018-11-01T20:37:54.686Z,69.10
2018-11-01T20:39:58.824Z,69.20
2018-11-01T20:42:02.874Z,69.20
2018-11-01T20:44:07.030Z,69.20
2018-11-01T20:46:11.168Z,69.20
2018-11-01T20:48:15.226Z,69.20
2018-11-01T20:50:19.472Z,69.30
2018-11-01T20:52:23.451Z,69.40
2018-11-01T20:54:27.514Z,69.40
2018-11-01T20:56:31.718Z,69.50
2018-11-01T20:58:35.943Z,69.60
2018-11-01T21:00:40.072Z,69.60
2018-11-01T21:02:44.183Z,69.80
2018-11-01T21:04:49.236Z,69.70
2018-11-01T21:06:53.517Z,69.80
2018-11-01T21:08:57.657Z,69.80
2018-11-01T21:11:01.836Z,69.80
2018-11-01T21:13:06.620Z,69.90
2018-11-01T21:15:12.633Z,69.90
2018-11-01T21:17:16.722Z,70.00
2018-11-01T21:19:20.816Z,70.10
2018-11-01T21:21:24.880Z,70.20
2018-11-01T21:23:28.935Z,70.40
2018-11-01T21:25:33.062Z,70.40
2018-11-01T21:27:37.210Z,70.60
2018-11-01T21:29:43.207Z,70.70
2018-11-01T21:31:47.286Z,70.80
2018-11-01T21:33:51.492Z,70.70
2018-11-01T21:35:55.699Z,70.90
2018-11-01T21:37:59.591Z,70.90
2018-11-01T21:40:04.313Z,71.00
2018-11-01T21:42:08.438Z,71.00
2018-11-01T21:44:12.977Z,71.00
2018-11-01T21:46:18.006Z,71.00
2018-11-01T21:48:22.204Z,70.90
2018-11-01T21:50:26.286Z,70.80
2018-11-01T21:52:30.365Z,70.70
2018-11-01T21:54:34.474Z,70.70
2018-11-01T21:56:38.598Z,70.70
2018-11-01T21:58:42.658Z,70.70
2018-11-01T22:00:46.726Z,70.60
2018-11-01T22:02:50.806Z,70.50
2018-11-01T22:04:54.946Z,70.50
2018-11-01T22:06:59.017Z,70.40
2018-11-01T22:09:03.115Z,70.30
2018-11-01T22:11:07.290Z,70.20
2018-11-01T22:13:11.353Z,70.20
2018-11-01T22:15:15.408Z,70.30
2018-11-01T22:17:19.454Z,70.30
2018-11-01T22:19:23.509Z,70.40
2018-11-01T22:21:27.556Z,70.50
2018-11-01T22:23:31.745Z,70.50
2018-11-01T22:25:35.805Z,71.40
2018-11-01T22:27:39.860Z,70.90
2018-11-01T22:29:43.915Z,70.90
2018-11-01T22:31:48.035Z,70.90
2018-11-01T22:33:52.107Z,71.60
2018-11-01T22:35:56.189Z,70.90
2018-11-01T22:38:00.266Z,71.00
2018-11-01T22:40:04.393Z,71.00
2018-11-01T22:42:08.474Z,71.10
2018-11-01T22:44:12.558Z,71.10
2018-11-01T22:46:16.625Z,71.10
2018-11-01T22:48:20.790Z,71.20
2018-11-01T22:50:25.767Z,71.10
2018-11-01T22:52:29.836Z,71.10
2018-11-01T22:54:33.890Z,71.20
2018-11-01T22:56:37.967Z,71.30
2018-11-01T22:58:42.042Z,71.30
2018-11-01T23:00:46.159Z,71.30
2018-11-01T23:02:50.204Z,71.40
2018-11-01T23:04:54.403Z,71.50
2018-11-01T23:06:58.465Z,72.40
2018-11-01T23:09:02.606Z,71.70
2018-11-01T23:11:06.679Z,71.80
2018-11-01T23:13:10.771Z,71.90
2018-11-01T23:15:14.830Z,72.00
2018-11-01T23:17:18.979Z,72.00
2018-11-01T23:19:23.050Z,72.00
2018-11-01T23:21:27.106Z,72.10
2018-11-01T23:23:31.171Z,72.10
2018-11-01T23:25:35.265Z,72.20
2018-11-01T23:27:39.412Z,72.40
2018-11-01T23:29:43.749Z,72.30
2018-11-01T23:31:47.862Z,72.40
2018-11-01T23:33:51.904Z,72.40
2018-11-01T23:36:00.148Z,72.40
2018-11-01T23:38:09.641Z,72.40
2018-11-01T23:40:19.055Z,72.30
2018-11-01T23:42:28.434Z,72.40
2018-11-01T23:44:37.708Z,72.40
2018-11-01T23:46:47.026Z,72.40
2018-11-01T23:49:00.349Z,72.40
2018-11-01T23:51:07.945Z,72.30
2018-11-01T23:53:16.468Z,72.50
2018-11-01T23:55:20.543Z,72.40
2018-11-01T23:57:24.678Z,72.40
2018-11-01T23:59:28.769Z,72.40
